Time;durP1;ratioP1;P1;durP2;ratioP2;P2;SDS_P1;SDS_P2;PMS_P1;PMS_P2;Temp;Humidity;BMP_temperature;BMP_pressure;BME280_temperature;BME280_humidity;BME280_pressure;Samples;Min_cycle;Max_cycle;Signal;HPM_P1;HPM_P2
2022/10/11 00:00:47;;;;;;;16.40;8.67;;;;;;;;;;4877545;29;20186;-82
2022/10/11 00:03:13;;;;;;;14.57;8.60;;;;;;;;;;4863657;29;20203;-82
2022/10/11 00:05:40;;;;;;;17.63;7.60;;;;;;;;;;4878442;29;20278;-82
2022/10/11 00:08:06;;;;;;;14.03;7.70;;;;;;;;;;4877775;29;20258;-88
2022/10/11 00:24:02;;;;;;;12.50;6.83;;;;;;;;;;4894877;29;20188;-77
2022/10/11 00:26:28;;;;;;;12.77;7.73;;;;;;;;;;4891490;29;20212;-77
2022/10/11 00:28:54;;;;;;;17.53;7.73;;;;;;;;;;4884315;29;20189;-77
2022/10/11 00:31:21;;;;;;;18.30;7.27;;;;;;;;;;4853450;29;20201;-77
2022/10/11 00:33:47;;;;;;;14.23;6.80;;;;;;;;;;4884248;29;20264;-78
2022/10/11 00:36:15;;;;;;;14.40;6.97;;;;;;;;;;4881364;29;20209;-81
2022/10/11 00:38:42;;;;;;;13.13;7.00;;;;;;;;;;4899615;29;20241;-81
2022/10/11 00:41:08;;;;;;;15.77;7.40;;;;;;;;;;4885457;29;20186;-81
2022/10/11 00:43:34;;;;;;;15.53;7.57;;;;;;;;;;4883779;29;20200;-80
2022/10/11 00:46:18;;;;;;;15.87;7.07;;;;;;;;;;4876710;29;20224;-81
2022/10/11 00:48:49;;;;;;;15.80;7.90;;;;;;;;;;4893789;29;20201;-81
2022/10/11 00:51:25;;;;;;;9.83;6.40;;;;;;;;;;4880019;29;20208;-81
2022/10/11 00:53:52;;;;;;;11.60;6.87;;;;;;;;;;4884478;29;20220;-81
2022/10/11 00:56:31;;;;;;;10.40;6.20;;;;;;;;;;4881639;29;20189;-81
2022/10/11 00:58:59;;;;;;;15.40;6.70;;;;;;;;;;4869576;29;20196;-77
2022/10/11 01:01:25;;;;;;;14.93;7.00;;;;;;;;;;4885349;29;20193;-77
2022/10/11 01:03:51;;;;;;;15.10;6.47;;;;;;;;;;4884595;29;20197;-87
2022/10/11 01:06:17;;;;;;;12.80;6.53;;;;;;;;;;4880447;29;20236;-87
2022/10/11 01:08:44;;;;;;;15.43;7.03;;;;;;;;;;4884405;29;20200;-81
2022/10/11 01:11:13;;;;;;;11.93;7.33;;;;;;;;;;4865968;29;20236;-81
2022/10/11 01:13:42;;;;;;;14.03;7.77;;;;;;;;;;4878942;29;20229;-81
2022/10/11 01:16:08;;;;;;;12.57;6.37;;;;;;;;;;4881574;29;20213;-79
2022/10/11 01:18:38;;;;;;;13.70;6.47;;;;;;;;;;4900991;29;20232;-79
2022/10/11 01:21:04;;;;;;;12.53;6.87;;;;;;;;;;4900741;29;20197;-77
2022/10/11 01:23:45;;;;;;;14.33;6.70;;;;;;;;;;4884724;29;20197;-77
2022/10/11 01:26:17;;;;;;;12.23;6.40;;;;;;;;;;4876623;29;20291;-77
2022/10/11 01:28:52;;;;;;;14.37;7.50;;;;;;;;;;4896893;29;20224;-81
2022/10/11 01:31:27;;;;;;;14.57;7.20;;;;;;;;;;4884258;29;20189;-88
2022/10/11 01:33:53;;;;;;;12.23;6.87;;;;;;;;;;4870567;29;20199;-88
2022/10/11 01:36:32;;;;;;;11.57;7.17;;;;;;;;;;4865866;29;20275;-88
2022/10/11 01:39:19;;;;;;;17.47;6.90;;;;;;;;;;4897815;29;20272;-79
2022/10/11 01:41:53;;;;;;;17.07;7.53;;;;;;;;;;4893278;29;20194;-79
2022/10/11 01:44:19;;;;;;;15.80;7.63;;;;;;;;;;4883820;29;20181;-79
2022/10/11 01:46:45;;;;;;;18.90;7.70;;;;;;;;;;4896527;29;20209;-79
2022/10/11 01:49:11;;;;;;;19.10;8.43;;;;;;;;;;4883881;29;20209;-82
2022/10/11 01:51:40;;;;;;;15.97;8.17;;;;;;;;;;4871857;29;20197;-81
2022/10/11 01:54:24;;;;;;;13.67;7.60;;;;;;;;;;4866761;29;20186;-81
2022/10/11 01:56:50;;;;;;;13.53;7.97;;;;;;;;;;4880714;29;20221;-81
2022/10/11 01:59:22;;;;;;;13.77;7.50;;;;;;;;;;4868668;29;20283;-81
2022/10/11 02:01:55;;;;;;;16.17;8.20;;;;;;;;;;4865459;29;20198;-81
2022/10/11 02:04:30;;;;;;;15.10;8.03;;;;;;;;;;4888969;29;20201;-79
2022/10/11 02:06:59;;;;;;;18.43;8.40;;;;;;;;;;4883245;29;20212;-79
2022/10/11 02:09:27;;;;;;;20.23;8.67;;;;;;;;;;4882120;29;20186;-79
2022/10/11 02:11:56;;;;;;;18.60;8.13;;;;;;;;;;4864843;29;20182;-79
2022/10/11 02:14:24;;;;;;;15.07;8.00;;;;;;;;;;4881837;29;20192;-81
2022/10/11 02:17:06;;;;;;;16.77;8.70;;;;;;;;;;4883068;29;20276;-81
2022/10/11 02:19:35;;;;;;;17.80;8.80;;;;;;;;;;4899809;29;20184;-81
2022/10/11 02:22:03;;;;;;;15.90;7.93;;;;;;;;;;4899777;29;20233;-79
2022/10/11 02:24:30;;;;;;;14.83;7.87;;;;;;;;;;4899844;29;20216;-79
2022/10/11 02:26:58;;;;;;;16.07;7.87;;;;;;;;;;4899362;29;20304;-79
2022/10/11 02:29:26;;;;;;;17.63;8.13;;;;;;;;;;4881993;29;20193;-79
2022/10/11 02:31:52;;;;;;;13.23;7.87;;;;;;;;;;4882776;29;20204;-79
2022/10/11 02:34:20;;;;;;;12.63;8.13;;;;;;;;;;4896642;29;20235;-88
2022/10/11 02:36:52;;;;;;;12.80;7.53;;;;;;;;;;4872632;29;20201;-88
2022/10/11 02:39:23;;;;;;;15.30;7.87;;;;;;;;;;4895168;29;20268;-87
2022/10/11 02:41:50;;;;;;;13.60;7.53;;;;;;;;;;4883423;29;20212;-87
2022/10/11 02:44:19;;;;;;;17.77;7.90;;;;;;;;;;4896633;29;20189;-88
2022/10/11 02:46:46;;;;;;;12.70;7.10;;;;;;;;;;4879370;29;20221;-88
2022/10/11 02:49:12;;;;;;;13.43;7.47;;;;;;;;;;4886058;29;20186;-88
2022/10/11 02:51:38;;;;;;;13.23;7.80;;;;;;;;;;4881886;29;20181;-88
2022/10/11 02:54:04;;;;;;;13.40;7.17;;;;;;;;;;4897791;29;20260;-81
2022/10/11 02:56:30;;;;;;;13.03;7.23;;;;;;;;;;4867043;29;20181;-82
2022/10/11 02:58:56;;;;;;;12.27;7.27;;;;;;;;;;4858090;29;20201;-82
2022/10/11 03:01:22;;;;;;;18.73;7.43;;;;;;;;;;4882274;29;20189;-81
2022/10/11 03:03:49;;;;;;;16.33;7.60;;;;;;;;;;4866806;29;20232;-81
2022/10/11 03:06:15;;;;;;;10.43;7.00;;;;;;;;;;4876349;29;20286;-81
2022/10/11 03:08:41;;;;;;;13.87;7.20;;;;;;;;;;4893287;29;20206;-81
2022/10/11 03:11:07;;;;;;;11.13;6.83;;;;;;;;;;4866005;29;20232;-81
2022/10/11 03:13:33;;;;;;;13.20;6.73;;;;;;;;;;4870352;29;20185;-81
2022/10/11 03:15:59;;;;;;;14.27;6.93;;;;;;;;;;4873319;29;20201;-81
2022/10/11 03:18:25;;;;;;;12.80;7.00;;;;;;;;;;4864235;29;20194;-81
2022/10/11 03:20:51;;;;;;;12.17;7.00;;;;;;;;;;4882181;23;20246;-81
2022/10/11 03:23:18;;;;;;;12.70;6.73;;;;;;;;;;4862336;29;20226;-81
2022/10/11 03:25:44;;;;;;;13.53;7.17;;;;;;;;;;4866556;29;20245;-81
2022/10/11 03:28:11;;;;;;;11.10;7.10;;;;;;;;;;4861039;29;20315;-88
2022/10/11 03:30:37;;;;;;;14.00;7.10;;;;;;;;;;4864754;29;20200;-88
2022/10/11 03:33:03;;;;;;;12.17;7.30;;;;;;;;;;4862541;29;20197;-89
2022/10/11 03:35:29;;;;;;;11.53;7.20;;;;;;;;;;4862601;29;20194;-81
2022/10/11 03:37:55;;;;;;;16.70;7.40;;;;;;;;;;4861954;29;20205;-81
2022/10/11 03:40:21;;;;;;;11.20;7.57;;;;;;;;;;4861538;29;20198;-81
2022/10/11 03:42:47;;;;;;;12.07;6.60;;;;;;;;;;4877401;29;20189;-81
2022/10/11 03:45:13;;;;;;;9.87;6.67;;;;;;;;;;4862203;29;20198;-77
2022/10/11 03:47:39;;;;;;;13.63;7.10;;;;;;;;;;4862503;29;20186;-77
2022/10/11 03:50:09;;;;;;;14.77;7.23;;;;;;;;;;4845187;29;20198;-77
2022/10/11 03:52:35;;;;;;;12.97;6.80;;;;;;;;;;4876817;29;20186;-77
2022/10/11 03:55:01;;;;;;;15.47;8.30;;;;;;;;;;4877693;29;20197;-77
2022/10/11 03:57:27;;;;;;;15.27;6.80;;;;;;;;;;4859240;29;20195;-77
2022/10/11 03:59:53;;;;;;;14.37;7.70;;;;;;;;;;4859814;29;20198;-77
2022/10/11 04:02:20;;;;;;;12.53;7.00;;;;;;;;;;4878220;29;20198;-79
2022/10/11 04:04:46;;;;;;;16.30;7.17;;;;;;;;;;4877973;29;20197;-81
2022/10/11 04:07:12;;;;;;;12.63;7.27;;;;;;;;;;4861713;29;20236;-81
2022/10/11 04:09:38;;;;;;;13.87;7.87;;;;;;;;;;4861505;29;20194;-81
2022/10/11 04:12:04;;;;;;;13.63;8.00;;;;;;;;;;4846685;29;20285;-81
2022/10/11 04:14:30;;;;;;;16.00;8.13;;;;;;;;;;4860479;29;20273;-81
2022/10/11 04:16:56;;;;;;;16.80;8.60;;;;;;;;;;4844984;29;20190;-81
2022/10/11 04:19:22;;;;;;;11.63;7.57;;;;;;;;;;4877388;29;20239;-88
2022/10/11 04:21:48;;;;;;;15.00;8.07;;;;;;;;;;4863869;29;20277;-88
2022/10/11 04:24:14;;;;;;;13.30;7.93;;;;;;;;;;4842142;29;20194;-88
2022/10/11 04:26:40;;;;;;;10.67;8.03;;;;;;;;;;4849923;29;20233;-88
2022/10/11 04:29:06;;;;;;;14.43;8.33;;;;;;;;;;4863821;29;20201;-79
2022/10/11 04:31:32;;;;;;;16.80;9.20;;;;;;;;;;4863680;29;20272;-77
2022/10/11 04:33:58;;;;;;;14.00;9.20;;;;;;;;;;4851129;29;20187;-78
2022/10/11 04:36:24;;;;;;;16.33;9.37;;;;;;;;;;4865881;29;20304;-79
2022/10/11 04:38:50;;;;;;;13.77;9.03;;;;;;;;;;4866036;29;20213;-79
2022/10/11 04:41:16;;;;;;;14.57;8.70;;;;;;;;;;4867988;29;20186;-79
2022/10/11 04:43:42;;;;;;;13.40;8.67;;;;;;;;;;4864515;29;20261;-79
2022/10/11 04:46:09;;;;;;;20.33;8.83;;;;;;;;;;4845728;29;20305;-79
2022/10/11 04:48:36;;;;;;;20.50;9.50;;;;;;;;;;4860243;29;20179;-79
2022/10/11 04:51:02;;;;;;;19.23;8.73;;;;;;;;;;4881335;29;20186;-81
2022/10/11 04:53:28;;;;;;;14.70;9.07;;;;;;;;;;4862726;29;20190;-81
2022/10/11 04:55:57;;;;;;;16.77;8.37;;;;;;;;;;4855213;29;20222;-81
2022/10/11 04:58:23;;;;;;;16.63;8.47;;;;;;;;;;4858686;29;20198;-82
2022/10/11 05:00:49;;;;;;;17.83;8.37;;;;;;;;;;4862607;29;20198;-82
2022/10/11 05:03:15;;;;;;;11.80;7.67;;;;;;;;;;4849496;29;20221;-81
2022/10/11 05:05:41;;;;;;;15.20;8.23;;;;;;;;;;4872053;29;20241;-81
2022/10/11 05:08:07;;;;;;;14.00;9.53;;;;;;;;;;4869206;29;20277;-77
2022/10/11 05:10:33;;;;;;;14.57;9.00;;;;;;;;;;4872956;29;20208;-77
2022/10/11 05:12:59;;;;;;;14.80;7.87;;;;;;;;;;4860646;29;20190;-81
2022/10/11 05:15:25;;;;;;;12.40;8.10;;;;;;;;;;4856818;29;20190;-82
2022/10/11 05:17:51;;;;;;;10.77;7.40;;;;;;;;;;4858435;29;20190;-81
2022/10/11 05:20:17;;;;;;;12.03;7.33;;;;;;;;;;4868208;29;20244;-82
2022/10/11 05:22:43;;;;;;;13.00;7.40;;;;;;;;;;4860678;29;20277;-89
2022/10/11 05:25:09;;;;;;;10.33;6.80;;;;;;;;;;4865433;29;20281;-77
2022/10/11 05:27:35;;;;;;;11.53;6.63;;;;;;;;;;4865325;29;20190;-77
2022/10/11 05:30:01;;;;;;;10.03;6.90;;;;;;;;;;4849831;29;20289;-77
2022/10/11 05:32:27;;;;;;;11.97;6.77;;;;;;;;;;4861301;29;20274;-87
2022/10/11 05:34:53;;;;;;;13.37;6.80;;;;;;;;;;4859024;29;20205;-88
2022/10/11 05:37:19;;;;;;;10.20;6.50;;;;;;;;;;4868825;29;20197;-88
2022/10/11 05:39:46;;;;;;;8.73;6.37;;;;;;;;;;4875242;29;20285;-88
2022/10/11 05:42:12;;;;;;;12.37;6.40;;;;;;;;;;4876263;29;20197;-77
2022/10/11 05:44:38;;;;;;;14.63;6.77;;;;;;;;;;4860900;29;20230;-77
2022/10/11 05:47:04;;;;;;;13.43;6.47;;;;;;;;;;4846258;29;20273;-78
2022/10/11 05:49:30;;;;;;;14.43;6.77;;;;;;;;;;4865247;29;20205;-77
2022/10/11 05:51:56;;;;;;;14.53;6.63;;;;;;;;;;4863773;29;20198;-77
2022/10/11 05:54:22;;;;;;;10.10;6.37;;;;;;;;;;4875145;29;20186;-77
2022/10/11 05:56:48;;;;;;;10.07;6.00;;;;;;;;;;4880417;29;20194;-79
2022/10/11 05:59:14;;;;;;;8.27;6.07;;;;;;;;;;4880503;29;20288;-79
2022/10/11 06:01:40;;;;;;;11.63;6.13;;;;;;;;;;4874101;29;20187;-79
2022/10/11 06:04:07;;;;;;;12.40;6.23;;;;;;;;;;4847154;29;20274;-79
2022/10/11 06:06:33;;;;;;;14.17;6.10;;;;;;;;;;4879754;29;20210;-79
2022/10/11 06:08:59;;;;;;;12.67;5.90;;;;;;;;;;4861879;29;20246;-79
2022/10/11 06:11:26;;;;;;;10.13;5.90;;;;;;;;;;4873973;29;20198;-79
2022/10/11 06:13:53;;;;;;;12.70;6.20;;;;;;;;;;4864993;29;20235;-80
2022/10/11 06:16:19;;;;;;;13.50;6.83;;;;;;;;;;4879739;29;20198;-81
2022/10/11 06:18:45;;;;;;;15.57;7.30;;;;;;;;;;4863195;29;20289;-89
2022/10/11 06:21:12;;;;;;;11.67;6.93;;;;;;;;;;4862659;29;20288;-88
2022/10/11 06:23:38;;;;;;;13.20;7.07;;;;;;;;;;4849273;29;20186;-89
2022/10/11 06:26:05;;;;;;;12.40;6.97;;;;;;;;;;4857779;29;20218;-89
2022/10/11 06:28:32;;;;;;;12.50;7.27;;;;;;;;;;4872503;29;20178;-89
2022/10/11 06:30:58;;;;;;;15.77;7.07;;;;;;;;;;4856774;29;20186;-77
2022/10/11 06:33:24;;;;;;;12.13;7.17;;;;;;;;;;4880998;29;20186;-77
2022/10/11 06:35:56;;;;;;;15.03;7.70;;;;;;;;;;4872956;29;20193;-77
2022/10/11 06:38:22;;;;;;;13.80;7.83;;;;;;;;;;4872245;29;20189;-77
2022/10/11 06:40:49;;;;;;;14.50;7.50;;;;;;;;;;4845977;29;20194;-77
2022/10/11 06:43:15;;;;;;;14.37;7.90;;;;;;;;;;4874626;29;20190;-77
2022/10/11 06:45:41;;;;;;;13.40;7.93;;;;;;;;;;4861057;29;20222;-77
2022/10/11 06:48:07;;;;;;;13.93;7.43;;;;;;;;;;4879646;29;20190;-89
2022/10/11 06:50:33;;;;;;;14.53;9.27;;;;;;;;;;4864277;29;20178;-89
2022/10/11 06:52:59;;;;;;;14.70;9.03;;;;;;;;;;4880540;29;20182;-88
2022/10/11 06:55:25;;;;;;;16.73;9.90;;;;;;;;;;4880701;29;20182;-89
2022/10/11 06:57:51;;;;;;;16.80;10.47;;;;;;;;;;4880819;29;20182;-88
2022/10/11 07:00:17;;;;;;;21.38;12.45;;;;;;;;;;4863982;29;20440;-88
2022/10/11 07:02:43;;;;;;;23.40;11.77;;;;;;;;;;4849218;29;20182;-89
2022/10/11 07:05:09;;;;;;;17.93;10.73;;;;;;;;;;4864341;29;20178;-77
2022/10/11 07:07:35;;;;;;;20.00;10.90;;;;;;;;;;4848393;29;20217;-78
2022/10/11 07:10:01;;;;;;;17.50;10.33;;;;;;;;;;4879733;29;20186;-78
2022/10/11 07:12:27;;;;;;;15.73;10.10;;;;;;;;;;4880416;29;20174;-78
2022/10/11 07:14:53;;;;;;;17.57;9.93;;;;;;;;;;4880635;29;20377;-77
2022/10/11 07:17:19;;;;;;;19.77;10.80;;;;;;;;;;4879407;29;20288;-77
2022/10/11 07:19:46;;;;;;;15.33;9.70;;;;;;;;;;4879185;29;20257;-79
2022/10/11 07:22:12;;;;;;;17.53;10.33;;;;;;;;;;4864149;29;20193;-88
2022/10/11 07:24:38;;;;;;;20.50;10.43;;;;;;;;;;4864283;29;20261;-88
2022/10/11 07:27:04;;;;;;;17.40;9.50;;;;;;;;;;4849723;29;20222;-88
2022/10/11 07:29:30;;;;;;;17.47;9.43;;;;;;;;;;4847847;29;20211;-89
2022/10/11 07:31:56;;;;;;;19.10;9.43;;;;;;;;;;4860768;29;20277;-89
2022/10/11 07:34:22;;;;;;;19.37;8.80;;;;;;;;;;4845468;29;20269;-88
2022/10/11 07:36:48;;;;;;;17.90;9.43;;;;;;;;;;4855642;29;20193;-89
2022/10/11 07:39:15;;;;;;;19.73;8.93;;;;;;;;;;4863844;29;20190;-80
2022/10/11 07:41:41;;;;;;;15.10;8.97;;;;;;;;;;4863633;29;20186;-88
2022/10/11 07:44:07;;;;;;;13.50;8.57;;;;;;;;;;4880276;29;20210;-88
2022/10/11 07:46:33;;;;;;;22.47;8.30;;;;;;;;;;4864076;29;20213;-88
2022/10/11 07:48:59;;;;;;;17.40;8.83;;;;;;;;;;4863831;29;20253;-88
2022/10/11 07:51:25;;;;;;;17.83;8.47;;;;;;;;;;4863673;29;20197;-89
2022/10/11 07:53:53;;;;;;;17.27;8.07;;;;;;;;;;4880289;29;20183;-77
2022/10/11 07:56:20;;;;;;;16.00;7.23;;;;;;;;;;4864557;29;20182;-77
2022/10/11 07:58:50;;;;;;;17.27;7.93;;;;;;;;;;4867362;29;20193;-77
2022/10/11 08:01:16;;;;;;;14.63;7.30;;;;;;;;;;4883994;29;20237;-77
2022/10/11 08:03:42;;;;;;;13.53;7.60;;;;;;;;;;4867220;29;20186;-78
2022/10/11 08:06:10;;;;;;;16.43;7.43;;;;;;;;;;4866955;29;20216;-77
2022/10/11 08:08:36;;;;;;;18.67;7.30;;;;;;;;;;4866933;29;20186;-77
2022/10/11 08:11:03;;;;;;;15.77;7.30;;;;;;;;;;4867104;29;20178;-82
2022/10/11 08:13:29;;;;;;;11.67;6.47;;;;;;;;;;4882580;29;20186;-82
2022/10/11 08:15:55;;;;;;;16.13;7.00;;;;;;;;;;4882917;29;20190;-82
2022/10/11 08:18:21;;;;;;;15.37;7.27;;;;;;;;;;4882945;29;20192;-82
2022/10/11 08:20:47;;;;;;;19.67;7.17;;;;;;;;;;4867028;29;20241;-81
2022/10/11 08:23:13;;;;;;;9.63;5.70;;;;;;;;;;4882278;29;20183;-82
2022/10/11 08:25:41;;;;;;;13.50;5.60;;;;;;;;;;4883444;29;20202;-82
2022/10/11 08:28:08;;;;;;;14.23;5.87;;;;;;;;;;4883209;29;20209;-82
2022/10/11 08:30:34;;;;;;;12.47;5.83;;;;;;;;;;4882901;29;20190;-82
2022/10/11 08:33:00;;;;;;;13.13;5.60;;;;;;;;;;4882796;29;20181;-82
2022/10/11 08:35:27;;;;;;;11.43;5.33;;;;;;;;;;4881942;29;20213;-82
2022/10/11 08:37:53;;;;;;;13.40;6.10;;;;;;;;;;4882152;29;20265;-82
2022/10/11 08:40:20;;;;;;;9.80;5.30;;;;;;;;;;4882196;29;20221;-82
2022/10/11 08:42:57;;;;;;;13.35;6.32;;;;;;;;;;4881854;29;20418;-89
2022/10/11 08:45:32;;;;;;;15.37;5.63;;;;;;;;;;4882125;29;20174;-78
2022/10/11 08:48:33;;;;;;;10.30;5.60;;;;;;;;;;4862863;29;20186;-78
2022/10/11 08:51:00;;;;;;;9.67;5.73;;;;;;;;;;4821563;29;20262;-81
2022/10/11 08:53:40;;;;;;;14.43;6.10;;;;;;;;;;4867006;29;20206;-81
2022/10/11 08:56:06;;;;;;;12.13;5.13;;;;;;;;;;4864172;29;20233;-81
2022/10/11 08:58:40;;;;;;;14.13;6.27;;;;;;;;;;4847868;29;20230;-81
2022/10/11 09:01:10;;;;;;;13.90;6.07;;;;;;;;;;4864685;29;20186;-79
2022/10/11 09:03:38;;;;;;;15.87;6.27;;;;;;;;;;4882071;29;20279;-79
2022/10/11 09:06:04;;;;;;;13.87;6.47;;;;;;;;;;4879948;29;20229;-79
2022/10/11 09:08:48;;;;;;;19.10;7.60;;;;;;;;;;4879410;29;20190;-79
2022/10/11 09:11:33;;;;;;;12.70;6.43;;;;;;;;;;4866117;29;20197;-79
2022/10/11 09:14:02;;;;;;;15.47;7.40;;;;;;;;;;4875387;29;20218;-79
2022/10/11 09:16:51;;;;;;;12.70;6.50;;;;;;;;;;4863179;29;20194;-76
2022/10/11 09:19:17;;;;;;;12.80;5.90;;;;;;;;;;4841297;23;20217;-80
2022/10/11 09:22:02;;;;;;;12.33;5.47;;;;;;;;;;4879843;29;20198;-80
2022/10/11 09:24:34;;;;;;;15.93;6.23;;;;;;;;;;4895098;29;20185;-80
2022/10/11 09:27:12;;;;;;;12.67;6.00;;;;;;;;;;4878912;29;20230;-80
2022/10/11 09:29:52;;;;;;;13.70;6.30;;;;;;;;;;4882140;29;20182;-80
2022/10/11 09:32:20;;;;;;;13.43;5.67;;;;;;;;;;4881938;29;20194;-80
2022/10/11 09:34:47;;;;;;;12.47;5.33;;;;;;;;;;4873205;29;20213;-87
2022/10/11 09:37:31;;;;;;;10.20;5.70;;;;;;;;;;4883363;29;20185;-87
2022/10/11 09:40:02;;;;;;;15.00;6.73;;;;;;;;;;4878820;29;20200;-88
2022/10/11 09:42:28;;;;;;;11.97;6.10;;;;;;;;;;4865964;29;20215;-87
2022/10/11 09:44:56;;;;;;;12.60;5.30;;;;;;;;;;4873021;29;20197;-87
2022/10/11 09:47:29;;;;;;;9.50;4.60;;;;;;;;;;4883748;29;20221;-88
2022/10/11 09:50:02;;;;;;;10.07;4.63;;;;;;;;;;4876414;29;20189;-87
2022/10/11 09:52:28;;;;;;;10.57;4.27;;;;;;;;;;4882499;29;20317;-76
2022/10/11 09:54:56;;;;;;;13.47;4.40;;;;;;;;;;4876849;29;20185;-76
2022/10/11 09:57:22;;;;;;;10.60;4.60;;;;;;;;;;4874263;29;20189;-76
2022/10/11 10:00:19;;;;;;;10.50;3.90;;;;;;;;;;4894519;29;20186;-76
2022/10/11 10:02:47;;;;;;;9.57;3.93;;;;;;;;;;4864898;29;20190;-76
2022/10/11 10:05:18;;;;;;;10.60;3.83;;;;;;;;;;4872512;29;20189;-77
2022/10/11 10:08:03;;;;;;;10.37;3.33;;;;;;;;;;4905190;29;20280;-89
2022/10/11 10:10:29;;;;;;;10.00;3.50;;;;;;;;;;4871258;29;20225;-88
2022/10/11 10:12:57;;;;;;;8.53;3.60;;;;;;;;;;4880044;29;20178;-88
2022/10/11 10:15:25;;;;;;;15.43;3.90;;;;;;;;;;4872695;29;20194;-89
2022/10/11 10:17:52;;;;;;;10.73;3.10;;;;;;;;;;4871581;29;20210;-88
2022/10/11 10:20:37;;;;;;;9.63;3.50;;;;;;;;;;4854227;29;20225;-88
2022/10/11 10:23:09;;;;;;;11.18;3.38;;;;;;;;;;4881327;29;20281;-88
2022/10/11 10:25:37;;;;;;;11.23;3.20;;;;;;;;;;4889950;29;20186;-80
2022/10/11 10:28:15;;;;;;;10.10;3.50;;;;;;;;;;4864264;29;20178;-80
2022/10/11 10:30:50;;;;;;;8.15;3.38;;;;;;;;;;4864314;29;20174;-79
2022/10/11 10:33:18;;;;;;;11.25;3.17;;;;;;;;;;4864419;29;20190;-79
2022/10/11 10:35:53;;;;;;;7.93;3.05;;;;;;;;;;4864725;29;20225;-80
2022/10/11 10:38:27;;;;;;;8.32;3.13;;;;;;;;;;4882135;29;20188;-80
2022/10/11 10:40:58;;;;;;;9.82;3.15;;;;;;;;;;4880308;29;20195;-81
2022/10/11 10:43:29;;;;;;;10.05;3.38;;;;;;;;;;4864091;29;20178;-80
2022/10/11 10:46:14;;;;;;;8.20;3.25;;;;;;;;;;4880657;29;20209;-81
2022/10/11 10:48:57;;;;;;;8.45;2.97;;;;;;;;;;4864007;29;20202;-81
2022/10/11 10:51:33;;;;;;;9.50;2.60;;;;;;;;;;4873457;29;20190;-81
2022/10/11 10:54:09;;;;;;;11.77;3.25;;;;;;;;;;4889509;29;20232;-81
2022/10/11 10:56:48;;;;;;;10.45;3.22;;;;;;;;;;4896156;29;20216;-81
2022/10/11 10:59:20;;;;;;;10.27;3.40;;;;;;;;;;4863692;29;20447;-81
2022/10/11 11:02:06;;;;;;;9.43;3.20;;;;;;;;;;4880769;29;20433;-80
2022/10/11 11:04:33;;;;;;;9.40;3.20;;;;;;;;;;4850427;29;20197;-81
2022/10/11 11:07:03;;;;;;;8.65;3.15;;;;;;;;;;4852633;29;20201;-80
2022/10/11 11:09:39;;;;;;;12.02;3.40;;;;;;;;;;4898185;29;20257;-81
2022/10/11 11:12:19;;;;;;;10.10;3.22;;;;;;;;;;4872699;29;20281;-81
2022/10/11 11:15:04;;;;;;;11.07;3.20;;;;;;;;;;4884813;29;20247;-88
2022/10/11 11:17:33;;;;;;;8.65;3.10;;;;;;;;;;4882218;29;20181;-87
2022/10/11 11:19:59;;;;;;;10.70;2.88;;;;;;;;;;4893603;29;20442;-88
2022/10/11 11:22:34;;;;;;;9.10;3.10;;;;;;;;;;4866582;29;20441;-87
2022/10/11 11:25:00;;;;;;;7.97;2.83;;;;;;;;;;4884823;29;20245;-87
2022/10/11 11:27:29;;;;;;;9.30;2.90;;;;;;;;;;4872498;29;20244;-88
2022/10/11 11:29:58;;;;;;;10.15;2.95;;;;;;;;;;4865681;29;20437;-87
2022/10/11 11:32:27;;;;;;;9.63;2.83;;;;;;;;;;4897546;29;20185;-79
2022/10/11 11:35:26;;;;;;;13.15;3.28;;;;;;;;;;4867871;29;20438;-79
2022/10/11 11:37:54;;;;;;;8.77;3.10;;;;;;;;;;4866455;29;20424;-79
2022/10/11 11:40:40;;;;;;;11.15;3.08;;;;;;;;;;4878886;29;20196;-79
2022/10/11 11:43:15;;;;;;;10.63;3.30;;;;;;;;;;4892034;29;20424;-79
2022/10/11 11:46:08;;;;;;;9.98;3.33;;;;;;;;;;4870576;29;20449;-79
2022/10/11 11:48:34;;;;;;;10.50;3.47;;;;;;;;;;4859194;29;20511;-76
2022/10/11 11:51:04;;;;;;;11.57;3.30;;;;;;;;;;4864566;29;20453;-78
2022/10/11 11:53:52;;;;;;;9.77;3.50;;;;;;;;;;4879815;29;20432;-78
2022/10/11 11:56:41;;;;;;;11.90;3.53;;;;;;;;;;4866184;29;20426;-79
2022/10/11 11:59:30;;;;;;;12.00;3.33;;;;;;;;;;4862776;29;20513;-78
2022/10/11 12:02:03;;;;;;;13.52;3.42;;;;;;;;;;4866395;29;20433;-78
2022/10/11 12:04:32;;;;;;;10.73;3.50;;;;;;;;;;4863443;29;20426;-82
2022/10/11 12:07:01;;;;;;;10.75;3.45;;;;;;;;;;4867288;29;20453;-78
2022/10/11 12:09:28;;;;;;;10.13;3.60;;;;;;;;;;4862451;29;20422;-78
2022/10/11 12:11:56;;;;;;;12.32;3.70;;;;;;;;;;4863532;29;20496;-78
2022/10/11 12:14:34;;;;;;;13.65;3.30;;;;;;;;;;4862469;29;20454;-78
2022/10/11 12:17:06;;;;;;;10.50;3.35;;;;;;;;;;4862950;29;20425;-90
2022/10/11 12:19:32;;;;;;;11.82;3.40;;;;;;;;;;4867751;29;20456;-90
2022/10/11 12:22:17;;;;;;;10.23;3.15;;;;;;;;;;4852145;29;20502;-81
2022/10/11 12:24:56;;;;;;;13.60;3.70;;;;;;;;;;4887198;29;20542;-78
2022/10/11 12:27:40;;;;;;;10.30;3.20;;;;;;;;;;4891961;29;20462;-78
2022/10/11 12:30:25;;;;;;;9.18;2.88;;;;;;;;;;4862829;29;20434;-78
2022/10/11 12:32:52;;;;;;;10.50;3.03;;;;;;;;;;4865404;29;20430;-78
2022/10/11 12:35:30;;;;;;;12.10;3.30;;;;;;;;;;4862679;29;20442;-80
2022/10/11 12:38:02;;;;;;;10.95;3.08;;;;;;;;;;4883421;29;20448;-78
2022/10/11 12:40:34;;;;;;;13.02;3.10;;;;;;;;;;4876378;29;20425;-78
2022/10/11 12:43:14;;;;;;;12.65;3.30;;;;;;;;;;4885702;29;20434;-78
2022/10/11 12:45:46;;;;;;;9.67;2.90;;;;;;;;;;4882940;29;20421;-78
2022/10/11 12:48:18;;;;;;;11.32;2.92;;;;;;;;;;4866357;29;20517;-78
2022/10/11 12:50:44;;;;;;;9.10;3.17;;;;;;;;;;4868519;29;20438;-79
2022/10/11 12:53:31;;;;;;;12.43;3.00;;;;;;;;;;4889742;29;20541;-78
2022/10/11 12:56:09;;;;;;;12.13;3.10;;;;;;;;;;4865154;29;20430;-80
2022/10/11 12:58:40;;;;;;;11.45;3.00;;;;;;;;;;4868616;29;20438;-81
2022/10/11 13:01:07;;;;;;;11.33;3.00;;;;;;;;;;4865277;29;20426;-81
2022/10/11 13:03:36;;;;;;;12.38;3.33;;;;;;;;;;4867178;29;20502;-81
2022/10/11 13:06:14;;;;;;;10.05;2.90;;;;;;;;;;4865079;29;20437;-80
2022/10/11 13:08:42;;;;;;;10.90;3.20;;;;;;;;;;4871467;29;20452;-80
2022/10/11 13:11:09;;;;;;;11.50;3.03;;;;;;;;;;4886322;29;20462;-78
2022/10/11 13:13:40;;;;;;;11.35;3.05;;;;;;;;;;4866676;29;20521;-78
2022/10/11 13:16:17;;;;;;;10.77;3.20;;;;;;;;;;4865220;29;20505;-90
2022/10/11 13:18:45;;;;;;;10.55;2.75;;;;;;;;;;4868028;29;20470;-81
2022/10/11 13:21:18;;;;;;;10.73;3.00;;;;;;;;;;4891346;29;20453;-81
2022/10/11 13:23:44;;;;;;;11.07;3.28;;;;;;;;;;4897707;29;20420;-81
2022/10/11 13:26:10;;;;;;;11.73;3.05;;;;;;;;;;4888559;29;20488;-81
2022/10/11 13:28:36;;;;;;;8.70;2.90;;;;;;;;;;4882535;29;20425;-78
2022/10/11 13:31:03;;;;;;;10.57;2.75;;;;;;;;;;4880105;29;20414;-78
2022/10/11 13:33:34;;;;;;;9.35;2.95;;;;;;;;;;4882217;29;20437;-78
2022/10/11 13:36:01;;;;;;;10.52;2.92;;;;;;;;;;4899649;29;20517;-78
2022/10/11 13:38:34;;;;;;;9.53;3.00;;;;;;;;;;4881083;29;20432;-78
2022/10/11 13:41:02;;;;;;;13.15;2.90;;;;;;;;;;4865388;29;20414;-78
2022/10/11 13:43:29;;;;;;;9.40;2.80;;;;;;;;;;4866001;29;20430;-82
2022/10/11 13:45:55;;;;;;;10.63;2.90;;;;;;;;;;4899304;29;20452;-89
2022/10/11 13:48:22;;;;;;;10.13;3.00;;;;;;;;;;4876458;29;20462;-90
2022/10/11 13:51:07;;;;;;;10.48;3.05;;;;;;;;;;4864810;29;20410;-89
2022/10/11 13:53:33;;;;;;;11.93;2.80;;;;;;;;;;4865432;29;20418;-90
2022/10/11 13:56:02;;;;;;;11.27;2.50;;;;;;;;;;4898421;29;20204;-90
2022/10/11 13:58:32;;;;;;;8.45;2.55;;;;;;;;;;4883238;29;20420;-90
2022/10/11 14:01:00;;;;;;;9.80;2.70;;;;;;;;;;4896691;29;20525;-83
2022/10/11 14:03:40;;;;;;;10.90;3.13;;;;;;;;;;4880813;29;20425;-82
2022/10/11 14:06:06;;;;;;;10.25;2.83;;;;;;;;;;4864437;29;20457;-82
2022/10/11 14:08:38;;;;;;;10.15;3.20;;;;;;;;;;4877303;29;20477;-82
2022/10/11 14:11:06;;;;;;;11.13;2.85;;;;;;;;;;4864206;29;20478;-82
2022/10/11 14:13:34;;;;;;;9.70;2.75;;;;;;;;;;4863690;29;20430;-80
2022/10/11 14:16:07;;;;;;;8.98;2.80;;;;;;;;;;4866169;29;20473;-80
2022/10/11 14:18:42;;;;;;;10.07;3.00;;;;;;;;;;4864931;29;20437;-80
2022/10/11 14:21:23;;;;;;;11.65;3.00;;;;;;;;;;4889109;29;20452;-80
2022/10/11 14:23:50;;;;;;;9.20;2.72;;;;;;;;;;4876522;29;20450;-80
2022/10/11 14:26:16;;;;;;;8.68;2.90;;;;;;;;;;4874508;29;20439;-80
2022/10/11 14:28:42;;;;;;;9.93;2.80;;;;;;;;;;4882994;29;20428;-80
2022/10/11 14:31:09;;;;;;;9.53;2.90;;;;;;;;;;4864044;29;20430;-80
2022/10/11 14:33:35;;;;;;;7.75;2.70;;;;;;;;;;4886719;29;20484;-80
2022/10/11 14:36:01;;;;;;;8.73;3.03;;;;;;;;;;4873855;29;20449;-80
2022/10/11 14:38:27;;;;;;;8.00;2.60;;;;;;;;;;4865888;29;20426;-80
2022/10/11 14:40:53;;;;;;;9.35;2.75;;;;;;;;;;4863041;29;20495;-80
2022/10/11 14:43:19;;;;;;;8.18;2.58;;;;;;;;;;4878344;29;20444;-80
2022/10/11 14:45:45;;;;;;;9.30;2.80;;;;;;;;;;4860947;29;20461;-80
2022/10/11 14:48:11;;;;;;;10.55;2.70;;;;;;;;;;4863207;29;20497;-80
2022/10/11 14:50:41;;;;;;;12.30;3.20;;;;;;;;;;4874217;29;20420;-80
2022/10/11 14:53:08;;;;;;;10.20;2.83;;;;;;;;;;4895180;29;20505;-80
2022/10/11 14:55:35;;;;;;;10.18;3.03;;;;;;;;;;4883485;29;20424;-80
2022/10/11 14:58:01;;;;;;;10.30;2.87;;;;;;;;;;4874360;29;20418;-80